createdAt,value
2022-08-07T00:02:36.711Z,100882.77
2022-08-07T00:06:51.067Z,100887.81
2022-08-07T00:10:58.170Z,100893.90
2022-08-07T00:15:10.821Z,100895.75
2022-08-07T00:19:21.303Z,100901.54
2022-08-07T00:23:24.775Z,100901.19
2022-08-07T00:27:51.926Z,100906.60
2022-08-07T00:31:53.966Z,100908.44
2022-08-07T00:35:57.094Z,100903.00
2022-08-07T00:40:03.874Z,100905.36
2022-08-07T00:44:06.062Z,100905.27
2022-08-07T00:48:11.264Z,100907.98
2022-08-07T00:52:13.442Z,100902.52
2022-08-07T00:56:20.019Z,100901.04
2022-08-07T01:00:26.923Z,100898.58
2022-08-07T01:04:30.320Z,100904.11
2022-08-07T01:08:34.952Z,100909.70
2022-08-07T01:12:39.809Z,100903.95
2022-08-07T01:16:56.949Z,100905.05
2022-08-07T01:21:26.042Z,100903.14
2022-08-07T01:25:54.079Z,100903.92
2022-08-07T01:29:55.223Z,100902.19
2022-08-07T01:33:58.774Z,100903.46
2022-08-07T01:38:06.888Z,100902.55
2022-08-07T01:42:38.580Z,100891.91
2022-08-07T01:46:41.540Z,100886.24
2022-08-07T01:50:49.394Z,100890.61
2022-08-07T01:54:55.971Z,100899.30
2022-08-07T01:59:31.059Z,100900.52
2022-08-07T02:03:42.806Z,100895.17
2022-08-07T02:07:56.086Z,100897.64
2022-08-07T02:12:18.465Z,100904.04
2022-08-07T02:16:28.395Z,100904.98
2022-08-07T02:20:35.285Z,100906.58
2022-08-07T02:24:44.631Z,100905.34
2022-08-07T02:28:49.588Z,100903.65
2022-08-07T02:33:03.555Z,100902.54
2022-08-07T02:37:13.836Z,100909.50
2022-08-07T02:41:21.639Z,100914.58
2022-08-07T02:45:58.875Z,100917.75
2022-08-07T02:49:57.644Z,100925.70
2022-08-07T02:54:03.551Z,100925.61
2022-08-07T02:58:10.115Z,100924.58
2022-08-07T03:02:14.668Z,100925.61
2022-08-07T03:06:25.888Z,100932.39
2022-08-07T03:10:40.979Z,100936.70
2022-08-07T03:14:52.423Z,100933.63
2022-08-07T03:18:55.979Z,100931.77
2022-08-07T03:22:59.301Z,100927.20
2022-08-07T03:27:04.746Z,100925.91
2022-08-07T03:31:23.753Z,100925.46
2022-08-07T03:35:43.584Z,100918.05
2022-08-07T03:40:13.433Z,100919.34
2022-08-07T03:44:16.278Z,100932.59
2022-08-07T03:48:25.939Z,100942.71
2022-08-07T03:52:29.643Z,100946.90
2022-08-07T03:56:38.768Z,100944.44
2022-08-07T04:01:03.099Z,100948.77
2022-08-07T04:05:28.752Z,100953.19
2022-08-07T04:09:50.254Z,100952.65
2022-08-07T04:14:10.879Z,100955.49
2022-08-07T04:18:57.549Z,100964.84
2022-08-07T04:22:53.817Z,100963.84
2022-08-07T04:27:04.841Z,100959.83
2022-08-07T04:31:10.257Z,100957.30
2022-08-07T04:35:23.279Z,100956.33
2022-08-07T04:39:28.856Z,100955.73
2022-08-07T04:44:11.964Z,100959.88
2022-08-07T04:48:34.738Z,100966.20
2022-08-07T04:53:03.229Z,100976.32
2022-08-07T04:58:13.161Z,100981.67
2022-08-07T05:02:36.680Z,100980.63
2022-08-07T05:07:09.600Z,100990.58
2022-08-07T05:11:57.407Z,100996.98
2022-08-07T05:15:57.171Z,101004.94
2022-08-07T05:20:00.202Z,101006.89
2022-08-07T05:24:16.763Z,101003.66
2022-08-07T05:28:23.028Z,101001.46
2022-08-07T05:32:30.279Z,101005.15
2022-08-07T05:36:35.649Z,101003.52
2022-08-07T05:40:50.675Z,100997.44
2022-08-07T05:45:25.794Z,100999.34
2022-08-07T05:49:40.384Z,101004.20
2022-08-07T05:54:09.508Z,101006.41
2022-08-07T05:58:11.490Z,101005.19
2022-08-07T06:02:20.079Z,101003.09
2022-08-07T06:06:33.257Z,101003.48
2022-08-07T06:10:38.631Z,101007.27
2022-08-07T06:15:05.308Z,101008.69
2022-08-07T06:19:09.004Z,101015.84
2022-08-07T06:23:46.558Z,101016.70
2022-08-07T06:28:00.730Z,101018.14
2022-08-07T06:32:05.286Z,101017.67
2022-08-07T06:36:13.313Z,101018.42
2022-08-07T06:40:56.403Z,101021.00
2022-08-07T06:45:00.710Z,101013.56
2022-08-07T06:49:04.974Z,101016.81
2022-08-07T06:54:11.507Z,101018.34
2022-08-07T06:57:39.825Z,101014.21
2022-08-07T07:01:56.337Z,101012.48
2022-08-07T07:06:05.572Z,101017.45
2022-08-07T07:10:13.274Z,101018.64
2022-08-07T07:14:50.246Z,101021.86
2022-08-07T07:19:55.631Z,101017.55
2022-08-07T07:24:06.490Z,101015.46
2022-08-07T07:28:42.395Z,101009.72
2022-08-07T07:32:46.908Z,101012.61
2022-08-07T07:36:52.595Z,101012.75
2022-08-07T07:41:19.690Z,101004.70
2022-08-07T07:46:36.936Z,101005.63
2022-08-07T07:50:34.146Z,101007.55
2022-08-07T07:54:14.768Z,101007.94
2022-08-07T07:58:19.608Z,101003.09
2022-08-07T08:02:33.990Z,101005.39
2022-08-07T08:06:40.358Z,101009.72
2022-08-07T08:10:56.078Z,101002.61
2022-08-07T08:14:58.369Z,101003.13
2022-08-07T08:19:09.680Z,101001.36
2022-08-07T08:23:41.337Z,101001.92
2022-08-07T08:27:56.968Z,100997.93
2022-08-07T08:32:18.031Z,101002.36
2022-08-07T08:36:29.734Z,101004.94
2022-08-07T08:40:38.549Z,101007.27
2022-08-07T08:44:57.935Z,101009.27
2022-08-07T08:49:32.759Z,101003.95
2022-08-07T08:53:52.178Z,101009.71
2022-08-07T08:58:28.783Z,101003.11
2022-08-07T09:02:49.561Z,101002.62
2022-08-07T09:07:11.306Z,101004.91
2022-08-07T09:11:50.807Z,100999.16
2022-08-07T09:16:23.131Z,100997.86
2022-08-07T09:21:00.727Z,100994.05
2022-08-07T09:25:14.491Z,100990.88
2022-08-07T09:30:03.930Z,100991.65
2022-08-07T09:34:21.131Z,100984.17
2022-08-07T09:38:29.377Z,100977.70
2022-08-07T09:42:52.143Z,100970.95
2022-08-07T09:47:52.124Z,100976.50
2022-08-07T09:52:10.121Z,100971.86
2022-08-07T09:56:41.947Z,100960.48
2022-08-07T10:01:52.089Z,100963.81
2022-08-07T10:06:24.612Z,100963.17
2022-08-07T10:11:17.027Z,100959.65
2022-08-07T10:15:15.099Z,100959.35
2022-08-07T10:19:23.438Z,100953.65
2022-08-07T10:24:06.263Z,100949.88
2022-08-07T10:28:16.701Z,100950.90
2022-08-07T10:32:51.546Z,100944.36
2022-08-07T10:36:58.842Z,100944.03
2022-08-07T10:41:08.881Z,100940.47
2022-08-07T10:45:45.297Z,100935.48
2022-08-07T10:50:25.859Z,100935.95
2022-08-07T10:54:40.816Z,100925.14
2022-08-07T10:59:05.869Z,100915.25
2022-08-07T11:03:16.745Z,100915.41
2022-08-07T11:08:00.273Z,100914.17
2022-08-07T11:12:12.031Z,100914.73
2022-08-07T11:16:22.518Z,100911.65
2022-08-07T11:20:48.741Z,100907.86
2022-08-07T11:25:23.248Z,100900.96
2022-08-07T11:29:42.925Z,100895.14
2022-08-07T11:34:19.276Z,100895.39
2022-08-07T11:38:32.995Z,100895.26
2022-08-07T11:42:44.874Z,100902.16
2022-08-07T11:47:09.917Z,100895.29
2022-08-07T11:51:41.130Z,100892.77
2022-08-07T11:56:25.689Z,100890.98
2022-08-07T12:00:28.585Z,100886.02
2022-08-07T12:04:42.677Z,100889.80
2022-08-07T12:08:55.867Z,100889.54
2022-08-07T12:13:47.461Z,100888.34
2022-08-07T12:17:59.801Z,100884.75
2022-08-07T12:22:39.607Z,100873.69
2022-08-07T12:26:55.169Z,100870.65
2022-08-07T12:31:09.274Z,100867.06
2022-08-07T12:35:14.448Z,100864.65
2022-08-07T12:39:43.094Z,100860.65
2022-08-07T12:44:01.516Z,100861.56
2022-08-07T12:48:28.266Z,100859.16
2022-08-07T12:52:56.861Z,100857.35
2022-08-07T12:57:07.424Z,100852.44
2022-08-07T13:01:49.167Z,100852.36
2022-08-07T13:06:21.708Z,100843.38
2022-08-07T13:10:44.802Z,100843.70
2022-08-07T13:15:32.468Z,100840.29
2022-08-07T13:19:51.768Z,100830.70
2022-08-07T13:24:31.242Z,100822.63
2022-08-07T13:28:43.806Z,100816.55
2022-08-07T13:34:29.795Z,100820.17
2022-08-07T13:37:55.579Z,100817.40
2022-08-07T13:42:02.923Z,100811.70
2022-08-07T13:46:21.099Z,100815.02
2022-08-07T13:50:33.596Z,100810.20
2022-08-07T13:54:49.335Z,100812.66
2022-08-07T13:59:05.605Z,100808.73
2022-08-07T14:03:14.331Z,100807.76
2022-08-07T14:07:37.914Z,100804.63
2022-08-07T14:12:07.357Z,100800.44
2022-08-07T14:16:17.515Z,100791.90
2022-08-07T14:20:42.976Z,100789.36
2022-08-07T14:24:51.111Z,100782.63
2022-08-07T14:28:55.856Z,100784.13
2022-08-07T14:33:05.197Z,100776.42
2022-08-07T14:37:16.341Z,100767.73
2022-08-07T14:41:34.143Z,100770.27
2022-08-07T14:45:54.673Z,100770.80
2022-08-07T14:54:34.715Z,100767.78
2022-08-07T14:59:00.557Z,100764.23
2022-08-07T15:03:16.668Z,100767.48
2022-08-07T15:07:47.292Z,100760.71
2022-08-07T15:12:09.676Z,100757.55
2022-08-07T15:21:44.227Z,100755.85
2022-08-07T15:26:32.301Z,100750.73
2022-08-07T15:54:07.450Z,100746.97
2022-08-07T15:59:39.784Z,100748.23
2022-08-07T16:04:37.269Z,100739.75
2022-08-07T16:08:46.886Z,100745.14
2022-08-07T16:18:51.011Z,100740.44
2022-08-07T16:30:05.842Z,100743.17
2022-08-07T16:34:06.897Z,100743.41
2022-08-07T16:44:03.909Z,100743.13
2022-08-07T16:48:53.888Z,100742.58
2022-08-07T16:54:01.643Z,100745.69
2022-08-07T16:58:03.968Z,100751.41
2022-08-07T17:02:53.004Z,100752.42
2022-08-07T17:07:51.331Z,100748.71
2022-08-07T17:12:03.922Z,100748.23
2022-08-07T17:16:16.110Z,100746.84
2022-08-07T17:20:41.129Z,100749.00
2022-08-07T17:24:47.336Z,100753.81
2022-08-07T17:30:13.084Z,100755.52
2022-08-07T17:34:33.402Z,100751.20
2022-08-07T17:38:33.094Z,100747.94
2022-08-07T17:43:21.257Z,100754.33
2022-08-07T17:48:06.486Z,100758.08
2022-08-07T17:52:35.523Z,100758.11
2022-08-07T17:57:25.745Z,100760.48
2022-08-07T18:02:14.780Z,100760.73
2022-08-07T18:06:37.207Z,100763.79
2022-08-07T18:12:20.000Z,100769.65
2022-08-07T18:16:30.808Z,100773.66
2022-08-07T18:21:38.206Z,100771.73
2022-08-07T18:25:52.196Z,100779.45
2022-08-07T18:30:32.951Z,100783.61
2022-08-07T18:35:20.649Z,100787.67
2022-08-07T18:40:08.480Z,100790.77
2022-08-07T18:44:31.209Z,100797.95
2022-08-07T18:50:05.164Z,100795.20
2022-08-07T18:53:54.120Z,100794.55
2022-08-07T18:58:13.015Z,100795.19
2022-08-07T19:02:53.130Z,100803.77
2022-08-07T19:07:51.594Z,100800.52
2022-08-07T19:12:19.564Z,100806.13
2022-08-07T19:17:09.282Z,100808.54
2022-08-07T19:21:48.046Z,100812.55
2022-08-07T19:26:23.696Z,100814.66
2022-08-07T19:31:02.151Z,100813.08
2022-08-07T19:35:26.965Z,100817.94
2022-08-07T19:39:56.215Z,100816.42
2022-08-07T19:44:35.023Z,100815.65
2022-08-07T19:49:56.676Z,100814.90
2022-08-07T19:54:35.149Z,100821.68
2022-08-07T19:58:32.167Z,100825.27
2022-08-07T20:02:53.364Z,100824.35
2022-08-07T20:07:00.773Z,100824.56
2022-08-07T20:11:09.616Z,100818.15
2022-08-07T20:15:22.068Z,100828.56
2022-08-07T20:19:48.034Z,100827.88
2022-08-07T20:24:07.178Z,100830.88
2022-08-07T20:28:18.074Z,100826.80
2022-08-07T20:32:47.612Z,100832.17
2022-08-07T20:36:52.309Z,100832.57
2022-08-07T20:41:03.816Z,100835.59
2022-08-07T20:46:28.477Z,100835.83
2022-08-07T20:50:03.519Z,100834.93
2022-08-07T20:54:29.897Z,100837.43
2022-08-07T20:58:43.126Z,100839.48
2022-08-07T21:03:03.613Z,100831.45
2022-08-07T21:07:49.486Z,100835.10
2022-08-07T21:12:41.208Z,100833.77
2022-08-07T21:18:04.070Z,100830.09
2022-08-07T21:22:55.498Z,100824.41
2022-08-07T21:28:02.402Z,100828.79
2022-08-07T21:32:48.824Z,100827.95
2022-08-07T21:37:03.631Z,100823.97
2022-08-07T21:41:38.149Z,100818.90
2022-08-07T21:46:07.982Z,100816.11
2022-08-07T21:50:30.220Z,100819.79
2022-08-07T21:54:35.628Z,100822.91
2022-08-07T21:59:06.597Z,100827.08
2022-08-07T22:03:31.516Z,100825.33
2022-08-07T22:07:58.567Z,100821.19
2022-08-07T22:12:11.231Z,100820.20
2022-08-07T22:16:53.685Z,100822.90
2022-08-07T22:21:11.511Z,100826.05
2022-08-07T22:25:36.473Z,100830.92
2022-08-07T22:30:12.719Z,100834.71
2022-08-07T22:34:29.018Z,100835.73
2022-08-07T22:38:59.241Z,100838.96
2022-08-07T22:43:10.678Z,100832.21
2022-08-07T22:47:40.033Z,100828.18
2022-08-07T22:52:36.866Z,100831.01
2022-08-07T22:57:14.992Z,100829.14
2022-08-07T23:01:54.276Z,100832.02
2022-08-07T23:06:35.802Z,100829.59
2022-08-07T23:11:16.053Z,100833.59
2022-08-07T23:16:06.386Z,100839.98
2022-08-07T23:20:51.744Z,100841.95
2022-08-07T23:25:15.114Z,100844.16
2022-08-07T23:30:36.047Z,100843.64
2022-08-07T23:34:51.789Z,100841.35
2022-08-07T23:39:08.640Z,100843.52
2022-08-07T23:43:38.813Z,100846.54
2022-08-07T23:48:11.378Z,100852.80
2022-08-07T23:53:06.461Z,100856.27
2022-08-07T23:57:12.051Z,100852.24
